createdAt,value
2022-11-29T00:01:28.668Z,99.47
2022-11-29T00:03:55.742Z,99.78
2022-11-29T00:06:24.663Z,99.64
2022-11-29T00:08:50.962Z,99.74
2022-11-29T00:11:48.090Z,99.75
2022-11-29T00:14:16.848Z,99.53
2022-11-29T00:16:43.798Z,99.72
2022-11-29T00:19:12.394Z,99.91
2022-11-29T00:21:38.904Z,99.66
2022-11-29T00:24:05.655Z,99.57
2022-11-29T00:26:32.079Z,99.51
2022-11-29T00:28:58.519Z,99.85
2022-11-29T00:31:30.218Z,99.55
2022-11-29T00:33:57.819Z,99.77
2022-11-29T00:36:24.808Z,99.52
2022-11-29T00:38:51.286Z,99.61
2022-11-29T00:41:17.658Z,99.52
2022-11-29T00:43:44.243Z,99.55
2022-11-29T00:46:11.697Z,99.73
2022-11-29T00:48:38.668Z,99.50
2022-11-29T00:51:06.138Z,99.70
2022-11-29T00:53:34.287Z,99.76
2022-11-29T00:56:00.878Z,99.59
2022-11-29T00:58:28.142Z,99.45
2022-11-29T01:00:55.081Z,99.72
2022-11-29T01:03:22.570Z,99.56
2022-11-29T01:05:49.383Z,99.66
2022-11-29T01:08:16.264Z,99.59
2022-11-29T01:10:42.769Z,99.54
2022-11-29T01:13:10.647Z,99.56
2022-11-29T01:15:37.436Z,99.77
2022-11-29T01:18:04.004Z,99.60
2022-11-29T01:20:30.330Z,99.74
2022-11-29T01:22:56.712Z,99.41
2022-11-29T01:25:23.026Z,99.56
2022-11-29T01:27:49.384Z,99.71
2022-11-29T01:30:15.899Z,99.38
2022-11-29T01:32:42.399Z,99.74
2022-11-29T01:35:09.026Z,99.60
2022-11-29T01:37:35.497Z,99.70
2022-11-29T01:40:01.846Z,99.82
2022-11-29T01:42:28.230Z,99.53
2022-11-29T01:45:05.290Z,99.78
2022-11-29T01:47:32.214Z,99.38
2022-11-29T01:49:59.761Z,99.65
2022-11-29T01:52:30.989Z,99.44
2022-11-29T01:55:01.604Z,99.44
2022-11-29T01:57:29.280Z,99.55
2022-11-29T02:00:00.785Z,99.43
2022-11-29T02:02:33.167Z,99.62
2022-11-29T02:05:01.023Z,99.69
2022-11-29T02:07:27.446Z,99.61
2022-11-29T02:09:54.006Z,99.62
2022-11-29T02:12:38.316Z,99.85
2022-11-29T02:15:35.290Z,99.68
2022-11-29T02:18:32.150Z,99.42
2022-11-29T02:21:46.215Z,99.61
2022-11-29T02:24:38.640Z,99.54
2022-11-29T02:27:31.499Z,99.38
2022-11-29T02:30:12.903Z,99.62
2022-11-29T02:33:08.454Z,99.45
2022-11-29T02:36:02.386Z,99.39
2022-11-29T02:38:50.118Z,99.27
2022-11-29T02:41:35.222Z,99.33
2022-11-29T02:44:23.406Z,99.39
2022-11-29T02:47:01.879Z,99.28
2022-11-29T02:49:56.022Z,99.13
2022-11-29T02:52:37.735Z,99.21
2022-11-29T02:55:19.855Z,99.33
2022-11-29T02:57:59.983Z,99.23
2022-11-29T03:00:26.638Z,99.14
2022-11-29T03:03:14.151Z,99.31
2022-11-29T03:06:04.957Z,99.19
2022-11-29T03:08:40.632Z,99.14
2022-11-29T03:11:28.144Z,99.25
2022-11-29T03:14:30.922Z,98.95
2022-11-29T03:17:25.762Z,99.23
2022-11-29T03:20:17.425Z,99.03
2022-11-29T03:22:58.418Z,99.13
2022-11-29T03:25:43.260Z,99.16
2022-11-29T03:28:19.287Z,99.21
2022-11-29T03:31:06.789Z,99.18
2022-11-29T03:33:45.706Z,99.32
2022-11-29T03:36:17.643Z,99.15
2022-11-29T03:38:47.040Z,99.31
2022-11-29T03:41:30.086Z,99.31
2022-11-29T03:44:07.890Z,99.05
2022-11-29T03:46:52.818Z,99.21
2022-11-29T03:49:43.531Z,99.18
2022-11-29T03:52:23.907Z,99.08
2022-11-29T03:55:08.426Z,99.03
2022-11-29T03:57:48.807Z,99.26
2022-11-29T04:00:16.901Z,98.98
2022-11-29T04:03:11.474Z,99.04
2022-11-29T04:06:03.903Z,99.15
2022-11-29T04:08:49.706Z,99.69
2022-11-29T04:11:34.857Z,99.20
2022-11-29T04:14:16.439Z,99.31
2022-11-29T04:17:20.525Z,99.14
2022-11-29T04:20:39.069Z,99.02
2022-11-29T04:23:43.269Z,98.94
2022-11-29T04:26:24.752Z,99.05
2022-11-29T04:29:36.827Z,99.02
2022-11-29T04:32:41.577Z,99.00
2022-11-29T04:35:35.290Z,98.96
2022-11-29T04:38:38.783Z,99.10
2022-11-29T04:41:34.479Z,99.19
2022-11-29T04:44:34.876Z,99.05
2022-11-29T04:47:04.224Z,98.96
2022-11-29T04:49:36.695Z,98.89
2022-11-29T04:52:32.374Z,99.22
2022-11-29T04:55:29.411Z,99.07
2022-11-29T04:58:15.538Z,99.11
2022-11-29T05:01:06.739Z,99.19
2022-11-29T05:03:44.887Z,98.96
2022-11-29T05:06:19.165Z,99.17
2022-11-29T05:09:03.216Z,99.16
2022-11-29T05:11:35.696Z,98.69
2022-11-29T05:14:16.691Z,99.01
2022-11-29T05:17:01.084Z,98.93
2022-11-29T05:19:55.434Z,98.87
2022-11-29T05:22:50.938Z,99.00
2022-11-29T05:25:39.648Z,98.86
2022-11-29T05:28:15.010Z,98.88
2022-11-29T05:31:06.535Z,99.14
2022-11-29T05:33:53.727Z,99.23
2022-11-29T05:36:27.966Z,98.81
2022-11-29T05:39:22.024Z,99.09
2022-11-29T05:42:10.831Z,98.98
2022-11-29T05:44:50.188Z,98.86
2022-11-29T05:47:28.240Z,98.89
2022-11-29T05:50:12.141Z,98.77
2022-11-29T05:52:57.421Z,98.99
2022-11-29T05:55:42.716Z,98.73
2022-11-29T05:58:24.446Z,98.73
2022-11-29T06:01:18.283Z,98.92
2022-11-29T06:04:04.300Z,98.71
2022-11-29T06:06:40.764Z,98.68
2022-11-29T06:09:14.319Z,98.86
2022-11-29T06:12:02.312Z,98.94
2022-11-29T06:14:47.917Z,98.64
2022-11-29T06:17:34.241Z,98.89
2022-11-29T06:20:15.265Z,98.74
2022-11-29T06:23:02.827Z,98.67
2022-11-29T06:26:03.514Z,98.79
2022-11-29T06:28:57.523Z,98.78
2022-11-29T06:31:30.840Z,98.72
2022-11-29T06:34:09.295Z,98.90
2022-11-29T06:36:48.158Z,98.68
2022-11-29T06:39:14.895Z,98.79
2022-11-29T06:41:41.270Z,98.83
2022-11-29T06:44:08.534Z,98.91
2022-11-29T06:46:51.551Z,98.80
2022-11-29T06:49:25.106Z,98.86
2022-11-29T06:52:00.467Z,98.89
2022-11-29T06:54:36.085Z,98.83
2022-11-29T06:57:16.989Z,98.84
2022-11-29T07:00:01.741Z,98.72
2022-11-29T07:02:35.133Z,98.73
2022-11-29T07:05:20.379Z,98.59
2022-11-29T07:07:48.439Z,98.72
2022-11-29T07:10:17.565Z,98.67
2022-11-29T07:12:45.980Z,98.54
2022-11-29T07:15:17.850Z,98.89
2022-11-29T07:17:57.798Z,98.77
2022-11-29T07:20:36.886Z,98.83
2022-11-29T07:23:13.290Z,98.42
2022-11-29T07:26:17.267Z,98.68
2022-11-29T07:28:55.868Z,98.84
2022-11-29T07:31:30.031Z,99.07
2022-11-29T07:34:10.125Z,98.75
2022-11-29T07:36:44.993Z,98.62
2022-11-29T07:39:23.535Z,98.53
2022-11-29T07:42:25.314Z,98.80
2022-11-29T07:45:02.764Z,98.89
2022-11-29T07:47:34.065Z,98.72
2022-11-29T07:50:01.960Z,98.70
2022-11-29T07:52:28.638Z,98.67
2022-11-29T07:54:55.715Z,98.67
2022-11-29T07:57:22.645Z,98.66
2022-11-29T07:59:48.985Z,98.63
2022-11-29T08:02:25.598Z,98.65
2022-11-29T08:04:52.017Z,98.68
2022-11-29T08:07:18.401Z,98.53
2022-11-29T08:09:44.937Z,98.49
2022-11-29T08:12:11.515Z,98.67
2022-11-29T08:14:37.884Z,98.70
2022-11-29T08:17:04.914Z,98.65
2022-11-29T08:19:31.238Z,98.52
2022-11-29T08:21:57.614Z,98.78
2022-11-29T08:24:24.032Z,98.47
2022-11-29T08:26:50.399Z,98.42
2022-11-29T08:29:17.022Z,98.40
2022-11-29T08:31:43.798Z,98.34
2022-11-29T08:34:10.651Z,98.48
2022-11-29T08:36:37.929Z,98.46
2022-11-29T08:39:09.378Z,98.57
2022-11-29T08:41:36.284Z,98.52
2022-11-29T08:44:04.148Z,98.40
2022-11-29T08:46:50.491Z,98.50
2022-11-29T08:49:16.894Z,98.34
2022-11-29T08:51:43.268Z,98.58
2022-11-29T08:54:09.853Z,98.39
2022-11-29T08:59:23.863Z,98.30
2022-11-29T09:01:50.198Z,98.31
2022-11-29T09:04:17.092Z,98.15
2022-11-29T09:06:44.394Z,98.18
2022-11-29T09:09:10.719Z,98.08
2022-11-29T09:11:37.089Z,98.19
2022-11-29T09:14:06.197Z,98.11
2022-11-29T09:16:34.853Z,98.23
2022-11-29T09:19:01.413Z,98.00
2022-11-29T09:21:30.083Z,97.88
2022-11-29T09:23:59.951Z,98.27
2022-11-29T09:26:29.245Z,98.21
2022-11-29T09:28:57.870Z,97.89
2022-11-29T09:31:24.474Z,97.84
2022-11-29T09:33:50.959Z,97.88
2022-11-29T09:36:17.310Z,97.83
2022-11-29T09:38:43.627Z,97.81
2022-11-29T09:41:16.124Z,98.04
2022-11-29T09:43:48.527Z,97.92
2022-11-29T09:46:23.434Z,97.46
2022-11-29T09:48:55.762Z,97.69
2022-11-29T09:51:45.525Z,97.61
2022-11-29T09:54:31.151Z,97.67
2022-11-29T09:56:57.768Z,97.61
2022-11-29T09:59:42.894Z,97.60
2022-11-29T10:02:20.864Z,97.23
2022-11-29T10:04:57.844Z,97.20
2022-11-29T10:07:33.635Z,97.27
2022-11-29T10:10:22.663Z,97.09
2022-11-29T10:12:55.037Z,96.99
2022-11-29T10:15:27.838Z,96.83
2022-11-29T10:18:17.449Z,96.60
2022-11-29T10:20:49.365Z,96.86
2022-11-29T10:23:36.700Z,96.70
2022-11-29T10:26:07.846Z,96.72
2022-11-29T10:28:36.563Z,96.57
2022-11-29T10:31:20.952Z,96.49
2022-11-29T10:33:48.727Z,96.32
2022-11-29T10:36:40.483Z,96.41
2022-11-29T10:39:15.907Z,96.47
2022-11-29T10:41:42.579Z,96.59
2022-11-29T10:44:14.626Z,96.53
2022-11-29T10:46:41.350Z,96.33
2022-11-29T10:49:14.010Z,96.42
2022-11-29T10:51:40.389Z,96.20
2022-11-29T10:54:21.923Z,96.04
2022-11-29T10:56:48.460Z,96.38
2022-11-29T10:59:27.426Z,96.10
2022-11-29T11:01:54.635Z,95.80
2022-11-29T11:04:26.955Z,95.83
2022-11-29T11:06:56.716Z,96.03
2022-11-29T11:09:40.318Z,96.08
2022-11-29T11:12:18.763Z,95.82
2022-11-29T11:14:47.000Z,95.98
2022-11-29T11:17:28.048Z,95.98
2022-11-29T11:20:08.743Z,95.72
2022-11-29T11:22:39.829Z,95.87
2022-11-29T11:25:24.337Z,95.68
2022-11-29T11:27:51.027Z,95.85
2022-11-29T11:30:23.210Z,95.99
2022-11-29T11:33:19.085Z,95.91
2022-11-29T11:36:01.632Z,95.57
2022-11-29T11:38:28.234Z,95.41
2022-11-29T11:41:03.948Z,95.50
2022-11-29T11:43:31.587Z,95.46
2022-11-29T11:45:58.314Z,95.08
2022-11-29T11:48:24.910Z,95.13
2022-11-29T11:50:52.818Z,94.79
2022-11-29T11:53:23.609Z,94.77
2022-11-29T11:56:16.350Z,94.30
2022-11-29T11:58:51.367Z,94.26
2022-11-29T12:01:30.593Z,94.27
2022-11-29T12:04:25.107Z,94.20
2022-11-29T12:07:00.532Z,94.87
2022-11-29T12:09:51.384Z,94.74
2022-11-29T12:12:20.602Z,94.33
2022-11-29T12:15:01.199Z,94.41
2022-11-29T12:18:05.030Z,93.83
2022-11-29T12:20:44.218Z,93.93
2022-11-29T12:23:13.779Z,93.97
2022-11-29T12:25:47.249Z,94.13
2022-11-29T12:28:20.290Z,93.83
2022-11-29T12:30:59.708Z,93.92
2022-11-29T12:33:36.850Z,94.16
2022-11-29T12:36:11.406Z,94.16
2022-11-29T12:38:53.160Z,93.88
2022-11-29T12:41:29.324Z,93.25
2022-11-29T12:43:58.440Z,93.25
2022-11-29T12:46:27.648Z,93.57
2022-11-29T12:49:22.031Z,93.42
2022-11-29T12:51:57.624Z,93.09
2022-11-29T12:54:30.097Z,93.34
2022-11-29T12:56:59.487Z,93.37
2022-11-29T12:59:57.766Z,93.08
2022-11-29T13:02:40.960Z,93.29
2022-11-29T13:05:18.997Z,92.95
2022-11-29T13:08:03.935Z,92.78
2022-11-29T13:10:36.459Z,93.17
2022-11-29T13:13:15.622Z,92.96
2022-11-29T13:15:50.593Z,92.96
2022-11-29T13:18:28.736Z,92.87
2022-11-29T13:21:02.065Z,92.83
2022-11-29T13:24:11.928Z,92.69
2022-11-29T13:26:41.959Z,92.67
2022-11-29T13:29:14.707Z,92.83
2022-11-29T13:31:41.969Z,92.75
2022-11-29T13:34:16.436Z,92.28
2022-11-29T13:37:12.727Z,92.36
2022-11-29T13:39:58.550Z,92.08
2022-11-29T13:42:51.290Z,92.20
2022-11-29T13:45:17.665Z,92.28
2022-11-29T13:47:52.333Z,92.20
2022-11-29T13:50:43.756Z,92.44
2022-11-29T13:53:25.688Z,92.48
2022-11-29T13:56:01.749Z,92.00
2022-11-29T13:58:28.092Z,92.54
2022-11-29T14:01:02.115Z,92.01
2022-11-29T14:03:35.886Z,92.15
2022-11-29T14:06:02.178Z,92.43
2022-11-29T14:08:48.036Z,92.38
2022-11-29T14:11:31.857Z,92.28
2022-11-29T14:14:07.443Z,92.48
2022-11-29T14:16:49.051Z,92.00
2022-11-29T14:19:18.287Z,92.44
2022-11-29T14:22:03.030Z,92.17
2022-11-29T14:24:32.573Z,91.95
2022-11-29T14:27:12.500Z,92.24
2022-11-29T14:29:48.577Z,92.14
2022-11-29T14:32:45.747Z,92.11
2022-11-29T14:35:12.667Z,92.20
2022-11-29T14:38:00.095Z,91.80
2022-11-29T14:40:33.838Z,92.08
2022-11-29T14:43:02.269Z,91.89
2022-11-29T14:45:30.571Z,92.13
2022-11-29T14:47:57.897Z,92.20
2022-11-29T14:50:37.254Z,92.15
2022-11-29T14:53:06.424Z,92.10
2022-11-29T14:55:36.531Z,92.23
2022-11-29T14:58:06.085Z,92.45
2022-11-29T15:00:32.653Z,92.51
2022-11-29T15:03:08.067Z,92.78
2022-11-29T15:05:37.989Z,92.57
2022-11-29T15:08:16.493Z,92.38
2022-11-29T15:10:49.483Z,92.58
2022-11-29T15:13:23.969Z,92.55
2022-11-29T15:15:58.456Z,92.69
2022-11-29T15:18:36.297Z,93.00
2022-11-29T15:21:13.561Z,93.23
2022-11-29T15:23:42.510Z,93.08
2022-11-29T15:26:17.940Z,93.04
2022-11-29T15:28:44.764Z,93.09
2022-11-29T15:31:14.818Z,92.92
2022-11-29T15:33:43.483Z,93.08
2022-11-29T15:36:21.747Z,93.22
2022-11-29T15:38:53.600Z,93.23
2022-11-29T15:41:31.263Z,93.29
2022-11-29T15:44:00.249Z,93.31
2022-11-29T15:46:29.212Z,93.27
2022-11-29T15:48:56.256Z,93.32
2022-11-29T15:51:34.496Z,93.34
2022-11-29T15:54:13.069Z,93.44
2022-11-29T15:56:54.757Z,93.49
2022-11-29T15:59:24.312Z,93.86
2022-11-29T16:01:54.717Z,93.86
2022-11-29T16:04:24.373Z,93.82
2022-11-29T16:06:51.820Z,94.38
2022-11-29T16:09:23.185Z,94.10
2022-11-29T16:11:49.754Z,93.95
2022-11-29T16:14:25.793Z,94.02
2022-11-29T16:16:55.012Z,94.15
2022-11-29T16:19:29.126Z,94.17
2022-11-29T16:22:11.825Z,94.29
2022-11-29T16:24:50.641Z,94.49
2022-11-29T16:27:19.369Z,94.56
2022-11-29T16:29:47.262Z,94.60
2022-11-29T16:32:36.659Z,94.70
2022-11-29T16:35:21.947Z,94.81
2022-11-29T16:37:48.876Z,94.92
2022-11-29T16:40:29.112Z,95.24
2022-11-29T16:43:04.751Z,95.31
2022-11-29T16:45:39.528Z,95.36
2022-11-29T16:48:21.094Z,95.67
2022-11-29T16:51:10.243Z,95.74
2022-11-29T16:53:44.056Z,95.72
2022-11-29T16:56:12.467Z,95.71
2022-11-29T16:59:17.097Z,95.78
2022-11-29T17:01:31.408Z,95.75
2022-11-29T17:03:59.942Z,95.76
2022-11-29T17:06:27.848Z,95.91
2022-11-29T17:08:56.582Z,95.96
2022-11-29T17:11:23.607Z,95.81
2022-11-29T17:13:50.897Z,95.82
2022-11-29T17:16:19.751Z,95.54
2022-11-29T17:18:46.303Z,95.85
2022-11-29T17:21:21.194Z,95.74
2022-11-29T17:23:48.161Z,95.78
2022-11-29T17:26:15.485Z,95.75
2022-11-29T17:28:43.468Z,95.56
2022-11-29T17:31:11.882Z,95.72
2022-11-29T17:33:38.268Z,95.75
2022-11-29T17:36:10.129Z,96.02
2022-11-29T17:38:37.132Z,95.83
2022-11-29T17:41:14.666Z,95.95
2022-11-29T17:43:41.784Z,95.80
2022-11-29T17:46:08.999Z,95.86
2022-11-29T17:48:36.373Z,95.85
2022-11-29T17:51:02.827Z,95.84
2022-11-29T17:53:30.522Z,95.73
2022-11-29T17:56:03.598Z,95.97
2022-11-29T17:58:30.048Z,95.98
2022-11-29T18:01:16.296Z,95.70
2022-11-29T18:03:44.294Z,95.69
2022-11-29T18:06:13.296Z,95.97
2022-11-29T18:08:41.297Z,95.87
2022-11-29T18:11:12.514Z,95.89
2022-11-29T18:13:39.204Z,95.85
2022-11-29T18:16:16.701Z,95.87
2022-11-29T18:18:44.443Z,95.96
2022-11-29T18:21:11.745Z,95.77
2022-11-29T18:23:40.651Z,95.80
2022-11-29T18:26:11.378Z,96.01
2022-11-29T18:28:39.238Z,95.95
2022-11-29T18:31:28.362Z,95.86
2022-11-29T18:33:57.720Z,95.96
2022-11-29T18:36:29.217Z,96.01
2022-11-29T18:38:58.051Z,95.90
2022-11-29T18:41:25.298Z,95.92
2022-11-29T18:44:00.239Z,95.94
2022-11-29T18:46:32.034Z,95.82
2022-11-29T18:49:03.136Z,96.25
2022-11-29T18:51:31.346Z,96.05
2022-11-29T18:53:58.763Z,95.83
2022-11-29T18:56:27.670Z,95.94
2022-11-29T18:59:03.082Z,95.86
2022-11-29T19:01:32.538Z,95.98
2022-11-29T19:04:00.343Z,96.16
2022-11-29T19:06:32.847Z,95.99
2022-11-29T19:09:04.698Z,95.97
2022-11-29T19:11:32.628Z,96.07
2022-11-29T19:14:03.019Z,95.99
2022-11-29T19:16:32.038Z,96.06
2022-11-29T19:18:59.840Z,96.13
2022-11-29T19:21:27.818Z,96.17
2022-11-29T19:23:56.630Z,96.07
2022-11-29T19:26:25.280Z,96.05
2022-11-29T19:28:52.234Z,95.99
2022-11-29T19:31:20.893Z,96.24
2022-11-29T19:33:47.377Z,95.99
2022-11-29T19:36:16.449Z,96.19
2022-11-29T19:38:45.700Z,96.00
2022-11-29T19:41:18.718Z,96.14
2022-11-29T19:43:45.708Z,95.89
2022-11-29T19:46:21.406Z,96.07
2022-11-29T19:48:48.434Z,95.91
2022-11-29T19:51:18.879Z,96.08
2022-11-29T19:53:46.884Z,95.88
2022-11-29T19:56:15.958Z,96.02
2022-11-29T19:58:43.140Z,95.82
2022-11-29T20:01:12.204Z,95.96
2022-11-29T20:03:39.376Z,95.86
2022-11-29T20:06:06.703Z,95.87
2022-11-29T20:08:33.467Z,95.98
2022-11-29T20:11:11.835Z,95.94
2022-11-29T20:13:39.840Z,96.07
2022-11-29T20:16:09.709Z,95.82
2022-11-29T20:18:38.998Z,95.94
2022-11-29T20:21:06.240Z,95.99
2022-11-29T20:23:33.429Z,96.10
2022-11-29T20:26:00.060Z,96.09
2022-11-29T20:28:26.804Z,96.05
2022-11-29T20:30:54.314Z,95.92
2022-11-29T20:33:25.347Z,95.85
2022-11-29T20:36:05.322Z,95.67
2022-11-29T20:38:44.073Z,95.64
2022-11-29T20:41:21.829Z,95.63
2022-11-29T20:43:55.008Z,95.83
2022-11-29T20:46:22.038Z,95.56
2022-11-29T20:48:48.635Z,95.62
2022-11-29T20:51:16.985Z,95.73
2022-11-29T20:53:46.015Z,95.40
2022-11-29T20:56:12.447Z,95.53
2022-11-29T20:58:39.002Z,95.73
2022-11-29T21:01:06.079Z,95.73
2022-11-29T21:03:32.497Z,95.64
2022-11-29T21:06:02.956Z,95.68
2022-11-29T21:08:29.437Z,95.61
2022-11-29T21:11:02.487Z,95.63
2022-11-29T21:13:29.112Z,95.89
2022-11-29T21:15:55.709Z,95.66
2022-11-29T21:18:25.535Z,95.51
2022-11-29T21:21:00.865Z,95.47
2022-11-29T21:23:38.201Z,95.57
2022-11-29T21:26:28.666Z,95.79
2022-11-29T21:29:10.285Z,95.57
2022-11-29T21:31:37.088Z,95.85
2022-11-29T21:34:03.674Z,95.68
2022-11-29T21:36:30.118Z,95.70
2022-11-29T21:38:57.892Z,95.70
2022-11-29T21:41:27.259Z,95.87
2022-11-29T21:44:09.094Z,95.90
2022-11-29T21:46:35.747Z,95.71
2022-11-29T21:49:02.153Z,95.76
2022-11-29T21:51:28.488Z,95.66
2022-11-29T21:53:54.806Z,96.02
2022-11-29T21:56:21.202Z,95.94
2022-11-29T21:58:47.559Z,95.88
2022-11-29T22:01:15.204Z,95.81
2022-11-29T22:03:42.530Z,95.97
2022-11-29T22:06:13.544Z,95.96
2022-11-29T22:08:41.151Z,95.92
2022-11-29T22:11:10.597Z,95.94
2022-11-29T22:13:58.879Z,95.58
2022-11-29T22:16:25.593Z,96.12
2022-11-29T22:18:52.190Z,95.94
2022-11-29T22:21:18.585Z,96.01
2022-11-29T22:23:44.956Z,96.03
2022-11-29T22:26:12.020Z,95.92
2022-11-29T22:28:38.530Z,95.90
2022-11-29T22:31:07.123Z,96.08
2022-11-29T22:33:33.810Z,95.92
2022-11-29T22:36:08.208Z,96.21
2022-11-29T22:38:35.240Z,96.28
2022-11-29T22:41:07.682Z,96.31
2022-11-29T22:43:34.734Z,96.14
2022-11-29T22:46:16.726Z,96.07
2022-11-29T22:48:44.779Z,96.24
2022-11-29T22:51:16.724Z,95.94
2022-11-29T22:53:50.704Z,95.78
2022-11-29T22:56:18.285Z,95.80
2022-11-29T22:58:45.608Z,95.70
2022-11-29T23:01:15.042Z,95.88
2022-11-29T23:03:43.768Z,95.81
2022-11-29T23:06:16.391Z,95.56
2022-11-29T23:08:44.024Z,95.33
2022-11-29T23:11:13.810Z,95.20
2022-11-29T23:13:42.253Z,95.09
2022-11-29T23:16:12.563Z,95.27
2022-11-29T23:18:39.954Z,95.05
2022-11-29T23:21:07.821Z,95.13
2022-11-29T23:23:34.865Z,95.00
2022-11-29T23:26:02.303Z,94.70
2022-11-29T23:28:29.211Z,94.97
2022-11-29T23:30:55.972Z,94.71
2022-11-29T23:33:23.386Z,94.77
2022-11-29T23:35:50.816Z,94.91
2022-11-29T23:38:17.890Z,94.58
2022-11-29T23:40:44.590Z,94.80
2022-11-29T23:43:10.984Z,94.69
2022-11-29T23:45:41.381Z,94.61
2022-11-29T23:48:07.918Z,94.43
2022-11-29T23:50:34.333Z,94.46
2022-11-29T23:53:00.776Z,94.47
2022-11-29T23:55:27.277Z,94.48
2022-11-29T23:57:53.651Z,94.37
